Startpagina
METAR-TAF:

METAR-TAF

Vliegvelden :

Koeweit, Koeweit

breedte: 29-13N, lengte: 047-59E, hoogte: 55 m

Actueel weer

Dit bericht is 29 minuten geleden gemaakt, om 05:00 UTC
Wind 6 kt uit het westen
Temperatuur 34°C
Vochtigheid 16%
Druk 1010 hPa
Zicht 10 km of meer
geen wolken onder 1500 m en geen cumulonimbus

METAR: OKBK 210500Z 26006KT CAVOK 34/05 Q1010 NOSIG

Tijdstip: 08:29 (05:29 UTC)

Verwachting

Dit bericht is 6 uur en het 44 minuten geleden gemaakt, om 22:45 UTC
Verwachting geldig van 21 om 00 UTC tot 22 om 06 UTC
Wind 10 kt uit het westen
Zicht: 8000 m
Onbewolkt
Tijdelijke
van 21 om 04 UTC tot 21 om 14 UTC
Wind 3 kt uit variabele richting

TAF: OKBK 202245Z 2100/2206 26010KT 8000 SKC TEMPO 2104/2114 VRB03KT

Waarnemingen en weersverwachtingen van meer dan 4000 vliegvelden (METAR en TAF).

De beschikbare stations zijn de gele en rode punten op de kaart.

Ga met uw muis naar het station om de naam te zien.

Klik dan om waarnemingen en weersverwachtingen te zien.

kaart wijzigen: klik op de groene knoppen met een zwart kruis om in te zoomen, op de groene knop met een streepje om uit te zoomen of op de groene pijlen voor aangrenzende kaarten.


METAR-TAF: